sensor_id;sensor_type;location;lat;lon;timestamp;P1;durP1;ratioP1;P2;durP2;ratioP2
54745;SDS011;40640;48.130;11.356;2022-12-24T00:02:57;2.05;;;0.60;;
54745;SDS011;40640;48.130;11.356;2022-12-24T00:07:01;2.03;;;0.70;;
54745;SDS011;40640;48.130;11.356;2022-12-24T00:11:05;0.73;;;0.70;;
54745;SDS011;40640;48.130;11.356;2022-12-24T00:15:08;3.83;;;0.55;;
54745;SDS011;40640;48.130;11.356;2022-12-24T00:19:12;0.85;;;0.45;;
54745;SDS011;40640;48.130;11.356;2022-12-24T00:23:15;1.40;;;0.65;;
54745;SDS011;40640;48.130;11.356;2022-12-24T00:27:20;2.83;;;1.10;;
54745;SDS011;40640;48.130;11.356;2022-12-24T00:31:23;1.20;;;0.60;;
54745;SDS011;40640;48.130;11.356;2022-12-24T00:35:26;2.63;;;0.80;;
54745;SDS011;40640;48.130;11.356;2022-12-24T00:39:29;3.50;;;1.75;;
54745;SDS011;40640;48.130;11.356;2022-12-24T00:43:34;0.47;;;0.47;;
54745;SDS011;40640;48.130;11.356;2022-12-24T00:47:36;1.20;;;0.40;;
54745;SDS011;40640;48.130;11.356;2022-12-24T00:51:39;0.95;;;0.52;;
54745;SDS011;40640;48.130;11.356;2022-12-24T00:55:42;2.92;;;0.77;;
54745;SDS011;40640;48.130;11.356;2022-12-24T00:59:46;3.13;;;0.95;;
54745;SDS011;40640;48.130;11.356;2022-12-24T01:03:49;2.33;;;0.82;;
54745;SDS011;40640;48.130;11.356;2022-12-24T01:08:13;0.70;;;0.60;;
54745;SDS011;40640;48.130;11.356;2022-12-24T01:12:16;1.25;;;0.63;;
54745;SDS011;40640;48.130;11.356;2022-12-24T01:16:20;1.80;;;0.88;;
54745;SDS011;40640;48.130;11.356;2022-12-24T01:20:23;1.45;;;0.55;;
54745;SDS011;40640;48.130;11.356;2022-12-24T01:24:27;1.08;;;0.57;;
54745;SDS011;40640;48.130;11.356;2022-12-24T01:28:30;2.13;;;1.00;;
54745;SDS011;40640;48.130;11.356;2022-12-24T01:32:35;2.40;;;0.63;;
54745;SDS011;40640;48.130;11.356;2022-12-24T01:36:37;4.15;;;0.77;;
54745;SDS011;40640;48.130;11.356;2022-12-24T01:40:41;7.45;;;0.98;;
54745;SDS011;40640;48.130;11.356;2022-12-24T01:49:42;0.93;;;0.65;;
54745;SDS011;40640;48.130;11.356;2022-12-24T01:53:48;1.05;;;0.70;;
54745;SDS011;40640;48.130;11.356;2022-12-24T01:57:57;2.13;;;0.73;;
54745;SDS011;40640;48.130;11.356;2022-12-24T02:02:03;2.17;;;0.80;;
54745;SDS011;40640;48.130;11.356;2022-12-24T02:06:07;1.25;;;0.73;;
54745;SDS011;40640;48.130;11.356;2022-12-24T02:10:12;1.13;;;0.70;;
54745;SDS011;40640;48.130;11.356;2022-12-24T02:14:16;2.08;;;0.80;;
54745;SDS011;40640;48.130;11.356;2022-12-24T02:18:20;2.78;;;1.02;;
54745;SDS011;40640;48.130;11.356;2022-12-24T02:22:34;2.33;;;0.60;;
54745;SDS011;40640;48.130;11.356;2022-12-24T02:26:54;3.00;;;0.75;;
54745;SDS011;40640;48.130;11.356;2022-12-24T02:31:12;2.70;;;0.80;;
54745;SDS011;40640;48.130;11.356;2022-12-24T02:35:23;2.08;;;0.77;;
54745;SDS011;40640;48.130;11.356;2022-12-24T02:39:32;1.40;;;0.70;;
54745;SDS011;40640;48.130;11.356;2022-12-24T02:43:41;4.15;;;0.75;;
54745;SDS011;40640;48.130;11.356;2022-12-24T02:47:48;4.40;;;0.88;;
54745;SDS011;40640;48.130;11.356;2022-12-24T02:51:52;3.95;;;0.98;;
54745;SDS011;40640;48.130;11.356;2022-12-24T02:56:18;4.35;;;0.80;;
54745;SDS011;40640;48.130;11.356;2022-12-24T03:00:30;2.65;;;0.95;;
54745;SDS011;40640;48.130;11.356;2022-12-24T03:04:44;3.28;;;1.00;;
54745;SDS011;40640;48.130;11.356;2022-12-24T03:08:52;2.90;;;1.00;;
54745;SDS011;40640;48.130;11.356;2022-12-24T03:13:01;2.33;;;0.90;;
54745;SDS011;40640;48.130;11.356;2022-12-24T03:17:07;2.10;;;0.90;;
54745;SDS011;40640;48.130;11.356;2022-12-24T03:21:13;5.28;;;1.10;;
54745;SDS011;40640;48.130;11.356;2022-12-24T03:25:19;2.03;;;0.77;;
54745;SDS011;40640;48.130;11.356;2022-12-24T03:29:26;3.17;;;1.10;;
54745;SDS011;40640;48.130;11.356;2022-12-24T03:33:29;2.95;;;1.02;;
54745;SDS011;40640;48.130;11.356;2022-12-24T03:37:33;2.08;;;0.90;;
54745;SDS011;40640;48.130;11.356;2022-12-24T03:41:36;1.25;;;0.77;;
54745;SDS011;40640;48.130;11.356;2022-12-24T03:45:39;1.35;;;0.70;;
54745;SDS011;40640;48.130;11.356;2022-12-24T03:49:42;1.42;;;0.70;;
54745;SDS011;40640;48.130;11.356;2022-12-24T03:53:46;1.98;;;0.75;;
54745;SDS011;40640;48.130;11.356;2022-12-24T03:57:49;2.47;;;0.90;;
54745;SDS011;40640;48.130;11.356;2022-12-24T04:01:52;3.88;;;0.90;;
54745;SDS011;40640;48.130;11.356;2022-12-24T04:06:00;3.05;;;1.00;;
54745;SDS011;40640;48.130;11.356;2022-12-24T04:10:06;2.22;;;0.90;;
54745;SDS011;40640;48.130;11.356;2022-12-24T04:14:10;2.67;;;0.80;;
54745;SDS011;40640;48.130;11.356;2022-12-24T04:18:12;0.77;;;0.50;;
54745;SDS011;40640;48.130;11.356;2022-12-24T04:22:15;1.70;;;0.90;;
54745;SDS011;40640;48.130;11.356;2022-12-24T04:26:19;2.08;;;0.60;;
54745;SDS011;40640;48.130;11.356;2022-12-24T04:30:22;1.95;;;0.80;;
54745;SDS011;40640;48.130;11.356;2022-12-24T04:34:25;6.80;;;0.95;;
54745;SDS011;40640;48.130;11.356;2022-12-24T04:38:28;2.85;;;0.60;;
54745;SDS011;40640;48.130;11.356;2022-12-24T04:42:33;5.78;;;0.90;;
54745;SDS011;40640;48.130;11.356;2022-12-24T04:46:36;0.43;;;0.43;;
54745;SDS011;40640;48.130;11.356;2022-12-24T04:50:38;0.93;;;0.70;;
54745;SDS011;40640;48.130;11.356;2022-12-24T04:54:41;4.25;;;0.98;;
54745;SDS011;40640;48.130;11.356;2022-12-24T04:58:45;2.78;;;1.05;;
54745;SDS011;40640;48.130;11.356;2022-12-24T05:02:49;3.58;;;1.13;;
54745;SDS011;40640;48.130;11.356;2022-12-24T05:06:52;1.90;;;0.80;;
54745;SDS011;40640;48.130;11.356;2022-12-24T05:10:55;1.20;;;0.77;;
54745;SDS011;40640;48.130;11.356;2022-12-24T05:14:59;2.95;;;1.17;;
54745;SDS011;40640;48.130;11.356;2022-12-24T05:19:02;2.92;;;0.90;;
54745;SDS011;40640;48.130;11.356;2022-12-24T05:23:05;3.35;;;1.15;;
54745;SDS011;40640;48.130;11.356;2022-12-24T05:27:25;2.15;;;0.82;;
54745;SDS011;40640;48.130;11.356;2022-12-24T05:31:30;3.30;;;0.93;;
54745;SDS011;40640;48.130;11.356;2022-12-24T05:35:34;7.30;;;1.00;;
54745;SDS011;40640;48.130;11.356;2022-12-24T05:39:37;1.75;;;0.60;;
54745;SDS011;40640;48.130;11.356;2022-12-24T05:43:40;1.80;;;0.70;;
54745;SDS011;40640;48.130;11.356;2022-12-24T05:47:44;2.50;;;0.80;;
54745;SDS011;40640;48.130;11.356;2022-12-24T05:51:47;2.72;;;0.90;;
54745;SDS011;40640;48.130;11.356;2022-12-24T05:55:50;1.35;;;0.77;;
54745;SDS011;40640;48.130;11.356;2022-12-24T05:59:52;5.13;;;1.00;;
54745;SDS011;40640;48.130;11.356;2022-12-24T06:03:56;3.60;;;0.95;;
54745;SDS011;40640;48.130;11.356;2022-12-24T06:07:59;4.88;;;0.88;;
54745;SDS011;40640;48.130;11.356;2022-12-24T06:12:02;1.65;;;0.80;;
54745;SDS011;40640;48.130;11.356;2022-12-24T06:16:06;3.55;;;1.00;;
54745;SDS011;40640;48.130;11.356;2022-12-24T06:20:14;2.58;;;1.00;;
54745;SDS011;40640;48.130;11.356;2022-12-24T06:24:17;3.85;;;1.17;;
54745;SDS011;40640;48.130;11.356;2022-12-24T06:28:20;4.72;;;0.98;;
54745;SDS011;40640;48.130;11.356;2022-12-24T06:32:22;2.50;;;0.90;;
54745;SDS011;40640;48.130;11.356;2022-12-24T06:36:26;1.00;;;0.70;;
54745;SDS011;40640;48.130;11.356;2022-12-24T06:40:29;3.42;;;0.70;;
54745;SDS011;40640;48.130;11.356;2022-12-24T06:44:32;2.85;;;0.80;;
54745;SDS011;40640;48.130;11.356;2022-12-24T06:48:34;1.65;;;0.82;;
54745;SDS011;40640;48.130;11.356;2022-12-24T06:52:39;0.88;;;0.47;;
54745;SDS011;40640;48.130;11.356;2022-12-24T06:56:41;0.90;;;0.55;;
54745;SDS011;40640;48.130;11.356;2022-12-24T07:00:46;2.80;;;0.82;;
54745;SDS011;40640;48.130;11.356;2022-12-24T07:04:49;2.10;;;0.70;;
54745;SDS011;40640;48.130;11.356;2022-12-24T07:08:53;10.48;;;2.70;;
54745;SDS011;40640;48.130;11.356;2022-12-24T07:12:56;2.40;;;0.80;;
54745;SDS011;40640;48.130;11.356;2022-12-24T07:16:59;2.00;;;0.90;;
54745;SDS011;40640;48.130;11.356;2022-12-24T07:21:02;5.03;;;0.73;;
54745;SDS011;40640;48.130;11.356;2022-12-24T07:25:07;0.47;;;0.38;;
54745;SDS011;40640;48.130;11.356;2022-12-24T07:29:11;2.40;;;0.60;;
54745;SDS011;40640;48.130;11.356;2022-12-24T07:33:14;1.60;;;0.70;;
54745;SDS011;40640;48.130;11.356;2022-12-24T07:37:16;3.03;;;0.52;;
54745;SDS011;40640;48.130;11.356;2022-12-24T07:41:21;2.00;;;0.70;;
54745;SDS011;40640;48.130;11.356;2022-12-24T07:45:23;0.73;;;0.40;;
54745;SDS011;40640;48.130;11.356;2022-12-24T07:49:26;1.35;;;0.70;;
54745;SDS011;40640;48.130;11.356;2022-12-24T07:53:30;0.95;;;0.43;;
54745;SDS011;40640;48.130;11.356;2022-12-24T07:57:34;1.13;;;0.60;;
54745;SDS011;40640;48.130;11.356;2022-12-24T08:01:37;4.28;;;1.10;;
54745;SDS011;40640;48.130;11.356;2022-12-24T08:05:40;3.20;;;0.65;;
54745;SDS011;40640;48.130;11.356;2022-12-24T08:09:42;0.43;;;0.43;;
54745;SDS011;40640;48.130;11.356;2022-12-24T08:13:47;7.85;;;0.80;;
54745;SDS011;40640;48.130;11.356;2022-12-24T08:17:50;0.32;;;0.30;;
54745;SDS011;40640;48.130;11.356;2022-12-24T08:21:54;3.60;;;1.30;;
54745;SDS011;40640;48.130;11.356;2022-12-24T08:25:57;1.88;;;0.60;;
54745;SDS011;40640;48.130;11.356;2022-12-24T08:30:01;2.42;;;0.88;;
54745;SDS011;40640;48.130;11.356;2022-12-24T08:34:04;1.75;;;0.88;;
54745;SDS011;40640;48.130;11.356;2022-12-24T08:38:09;2.28;;;0.80;;
54745;SDS011;40640;48.130;11.356;2022-12-24T08:42:12;2.60;;;0.80;;
54745;SDS011;40640;48.130;11.356;2022-12-24T08:46:16;1.98;;;0.73;;
54745;SDS011;40640;48.130;11.356;2022-12-24T08:50:19;3.42;;;0.80;;
54745;SDS011;40640;48.130;11.356;2022-12-24T08:54:22;5.30;;;1.80;;
54745;SDS011;40640;48.130;11.356;2022-12-24T08:58:30;3.20;;;0.88;;
54745;SDS011;40640;48.130;11.356;2022-12-24T09:02:34;5.78;;;1.38;;
54745;SDS011;40640;48.130;11.356;2022-12-24T09:06:37;1.08;;;0.77;;
54745;SDS011;40640;48.130;11.356;2022-12-24T09:10:40;1.60;;;0.80;;
54745;SDS011;40640;48.130;11.356;2022-12-24T09:14:43;2.28;;;0.82;;
54745;SDS011;40640;48.130;11.356;2022-12-24T09:18:47;1.63;;;0.77;;
54745;SDS011;40640;48.130;11.356;2022-12-24T09:22:50;2.05;;;0.73;;
54745;SDS011;40640;48.130;11.356;2022-12-24T09:26:53;1.02;;;0.70;;
54745;SDS011;40640;48.130;11.356;2022-12-24T09:30:59;11.50;;;2.42;;
54745;SDS011;40640;48.130;11.356;2022-12-24T09:35:04;1.67;;;0.75;;
54745;SDS011;40640;48.130;11.356;2022-12-24T09:39:08;2.58;;;1.00;;
54745;SDS011;40640;48.130;11.356;2022-12-24T09:43:12;1.80;;;0.75;;
54745;SDS011;40640;48.130;11.356;2022-12-24T09:51:27;3.72;;;1.70;;
54745;SDS011;40640;48.130;11.356;2022-12-24T09:55:34;1.92;;;1.05;;
54745;SDS011;40640;48.130;11.356;2022-12-24T09:59:44;4.32;;;1.45;;
54745;SDS011;40640;48.130;11.356;2022-12-24T10:03:48;4.20;;;1.17;;
54745;SDS011;40640;48.130;11.356;2022-12-24T10:07:53;2.15;;;0.80;;
54745;SDS011;40640;48.130;11.356;2022-12-24T10:12:05;4.90;;;1.70;;
54745;SDS011;40640;48.130;11.356;2022-12-24T10:16:16;0.88;;;0.63;;
54745;SDS011;40640;48.130;11.356;2022-12-24T10:20:29;1.65;;;0.68;;
54745;SDS011;40640;48.130;11.356;2022-12-24T10:24:42;1.65;;;0.60;;
54745;SDS011;40640;48.130;11.356;2022-12-24T10:28:52;4.93;;;0.88;;
54745;SDS011;40640;48.130;11.356;2022-12-24T10:32:59;1.35;;;0.70;;
54745;SDS011;40640;48.130;11.356;2022-12-24T10:37:02;3.13;;;0.82;;
54745;SDS011;40640;48.130;11.356;2022-12-24T10:41:06;3.38;;;1.00;;
54745;SDS011;40640;48.130;11.356;2022-12-24T10:45:13;2.60;;;0.60;;
54745;SDS011;40640;48.130;11.356;2022-12-24T10:49:18;2.80;;;0.80;;
54745;SDS011;40640;48.130;11.356;2022-12-24T10:53:32;2.13;;;0.82;;
54745;SDS011;40640;48.130;11.356;2022-12-24T10:57:43;4.13;;;0.90;;
54745;SDS011;40640;48.130;11.356;2022-12-24T11:01:48;1.95;;;0.70;;
54745;SDS011;40640;48.130;11.356;2022-12-24T11:05:58;3.28;;;0.88;;
54745;SDS011;40640;48.130;11.356;2022-12-24T11:10:07;1.02;;;0.75;;
54745;SDS011;40640;48.130;11.356;2022-12-24T11:14:25;5.32;;;1.20;;
54745;SDS011;40640;48.130;11.356;2022-12-24T11:18:35;2.42;;;1.15;;
54745;SDS011;40640;48.130;11.356;2022-12-24T11:22:47;2.35;;;1.10;;
54745;SDS011;40640;48.130;11.356;2022-12-24T11:26:51;3.75;;;1.35;;
54745;SDS011;40640;48.130;11.356;2022-12-24T11:30:56;4.20;;;1.10;;
54745;SDS011;40640;48.130;11.356;2022-12-24T11:35:04;3.03;;;1.17;;
54745;SDS011;40640;48.130;11.356;2022-12-24T11:39:09;3.30;;;1.15;;
54745;SDS011;40640;48.130;11.356;2022-12-24T11:43:20;4.65;;;0.80;;
54745;SDS011;40640;48.130;11.356;2022-12-24T11:47:31;3.17;;;1.20;;
54745;SDS011;40640;48.130;11.356;2022-12-24T11:51:35;2.05;;;1.00;;
54745;SDS011;40640;48.130;11.356;2022-12-24T11:55:41;1.70;;;1.02;;
54745;SDS011;40640;48.130;11.356;2022-12-24T11:59:46;3.90;;;1.23;;
54745;SDS011;40640;48.130;11.356;2022-12-24T12:03:54;3.65;;;1.17;;
54745;SDS011;40640;48.130;11.356;2022-12-24T12:08:06;2.47;;;1.02;;
54745;SDS011;40640;48.130;11.356;2022-12-24T12:12:13;5.20;;;1.02;;
54745;SDS011;40640;48.130;11.356;2022-12-24T12:16:20;2.67;;;0.80;;
54745;SDS011;40640;48.130;11.356;2022-12-24T12:20:29;3.35;;;0.95;;
54745;SDS011;40640;48.130;11.356;2022-12-24T12:24:36;2.35;;;0.90;;
54745;SDS011;40640;48.130;11.356;2022-12-24T12:28:45;1.77;;;1.10;;
54745;SDS011;40640;48.130;11.356;2022-12-24T12:32:52;3.17;;;1.05;;
54745;SDS011;40640;48.130;11.356;2022-12-24T12:37:04;4.32;;;0.85;;
54745;SDS011;40640;48.130;11.356;2022-12-24T12:41:19;3.08;;;1.10;;
54745;SDS011;40640;48.130;11.356;2022-12-24T12:45:31;4.90;;;1.63;;
54745;SDS011;40640;48.130;11.356;2022-12-24T12:49:42;2.92;;;0.95;;
54745;SDS011;40640;48.130;11.356;2022-12-24T12:54:03;4.07;;;1.27;;
54745;SDS011;40640;48.130;11.356;2022-12-24T12:58:19;2.30;;;0.75;;
54745;SDS011;40640;48.130;11.356;2022-12-24T13:02:34;2.92;;;0.93;;
54745;SDS011;40640;48.130;11.356;2022-12-24T13:06:54;3.60;;;1.30;;
54745;SDS011;40640;48.130;11.356;2022-12-24T13:11:21;2.42;;;0.63;;
54745;SDS011;40640;48.130;11.356;2022-12-24T13:15:47;5.43;;;0.75;;
54745;SDS011;40640;48.130;11.356;2022-12-24T13:20:03;2.83;;;0.80;;
54745;SDS011;40640;48.130;11.356;2022-12-24T13:24:20;1.27;;;0.70;;
54745;SDS011;40640;48.130;11.356;2022-12-24T13:28:34;3.20;;;0.80;;
54745;SDS011;40640;48.130;11.356;2022-12-24T13:32:40;2.17;;;1.02;;
54745;SDS011;40640;48.130;11.356;2022-12-24T13:36:59;3.65;;;1.13;;
54745;SDS011;40640;48.130;11.356;2022-12-24T13:45:44;3.42;;;0.82;;
54745;SDS011;40640;48.130;11.356;2022-12-24T13:49:49;1.10;;;0.63;;
54745;SDS011;40640;48.130;11.356;2022-12-24T13:53:56;2.53;;;0.60;;
54745;SDS011;40640;48.130;11.356;2022-12-24T13:58:00;2.20;;;1.03;;
54745;SDS011;40640;48.130;11.356;2022-12-24T14:02:14;2.60;;;0.98;;
54745;SDS011;40640;48.130;11.356;2022-12-24T14:06:22;4.63;;;0.75;;
54745;SDS011;40640;48.130;11.356;2022-12-24T14:10:27;1.50;;;0.52;;
54745;SDS011;40640;48.130;11.356;2022-12-24T14:14:32;3.20;;;1.63;;
54745;SDS011;40640;48.130;11.356;2022-12-24T14:18:38;2.65;;;1.02;;
54745;SDS011;40640;48.130;11.356;2022-12-24T14:22:43;29.55;;;10.05;;
54745;SDS011;40640;48.130;11.356;2022-12-24T14:26:48;44.83;;;14.93;;
54745;SDS011;40640;48.130;11.356;2022-12-24T14:30:58;5.95;;;3.20;;
54745;SDS011;40640;48.130;11.356;2022-12-24T14:35:07;11.25;;;5.25;;
54745;SDS011;40640;48.130;11.356;2022-12-24T14:39:19;7.43;;;3.92;;
54745;SDS011;40640;48.130;11.356;2022-12-24T14:43:26;6.90;;;3.40;;
54745;SDS011;40640;48.130;11.356;2022-12-24T14:47:38;3.20;;;2.20;;
54745;SDS011;40640;48.130;11.356;2022-12-24T14:51:49;2.70;;;1.50;;
54745;SDS011;40640;48.130;11.356;2022-12-24T14:56:08;2.45;;;1.48;;
54745;SDS011;40640;48.130;11.356;2022-12-24T15:00:17;8.13;;;3.35;;
54745;SDS011;40640;48.130;11.356;2022-12-24T15:04:21;6.85;;;2.42;;
54745;SDS011;40640;48.130;11.356;2022-12-24T15:08:27;3.13;;;1.90;;
54745;SDS011;40640;48.130;11.356;2022-12-24T15:12:32;5.85;;;3.25;;
54745;SDS011;40640;48.130;11.356;2022-12-24T15:16:35;11.20;;;4.47;;
54745;SDS011;40640;48.130;11.356;2022-12-24T15:20:38;3.38;;;1.73;;
54745;SDS011;40640;48.130;11.356;2022-12-24T15:24:48;4.00;;;1.60;;
54745;SDS011;40640;48.130;11.356;2022-12-24T15:28:52;4.18;;;1.70;;
54745;SDS011;40640;48.130;11.356;2022-12-24T15:33:04;3.85;;;1.73;;
54745;SDS011;40640;48.130;11.356;2022-12-24T15:37:10;3.15;;;1.80;;
54745;SDS011;40640;48.130;11.356;2022-12-24T15:41:19;3.03;;;1.40;;
54745;SDS011;40640;48.130;11.356;2022-12-24T15:45:25;2.92;;;1.20;;
54745;SDS011;40640;48.130;11.356;2022-12-24T15:49:30;2.42;;;1.05;;
54745;SDS011;40640;48.130;11.356;2022-12-24T15:53:34;2.20;;;1.20;;
54745;SDS011;40640;48.130;11.356;2022-12-24T15:57:45;4.32;;;1.35;;
54745;SDS011;40640;48.130;11.356;2022-12-24T16:01:48;2.47;;;1.27;;
54745;SDS011;40640;48.130;11.356;2022-12-24T16:05:57;1.60;;;1.23;;
54745;SDS011;40640;48.130;11.356;2022-12-24T16:10:01;4.13;;;2.22;;
54745;SDS011;40640;48.130;11.356;2022-12-24T16:14:16;3.08;;;2.00;;
54745;SDS011;40640;48.130;11.356;2022-12-24T16:18:22;2.45;;;1.65;;
54745;SDS011;40640;48.130;11.356;2022-12-24T16:22:27;4.70;;;2.05;;
54745;SDS011;40640;48.130;11.356;2022-12-24T16:26:33;4.85;;;2.50;;
54745;SDS011;40640;48.130;11.356;2022-12-24T16:30:39;3.90;;;2.50;;
54745;SDS011;40640;48.130;11.356;2022-12-24T16:34:42;6.38;;;3.25;;
54745;SDS011;40640;48.130;11.356;2022-12-24T16:38:45;8.10;;;4.43;;
54745;SDS011;40640;48.130;11.356;2022-12-24T16:43:05;2.95;;;2.60;;
54745;SDS011;40640;48.130;11.356;2022-12-24T16:47:27;5.00;;;3.00;;
54745;SDS011;40640;48.130;11.356;2022-12-24T16:51:39;3.55;;;2.20;;
54745;SDS011;40640;48.130;11.356;2022-12-24T16:55:42;4.03;;;2.50;;
54745;SDS011;40640;48.130;11.356;2022-12-24T16:59:45;3.75;;;1.67;;
54745;SDS011;40640;48.130;11.356;2022-12-24T17:03:50;3.30;;;1.50;;
54745;SDS011;40640;48.130;11.356;2022-12-24T17:07:53;3.28;;;1.60;;
54745;SDS011;40640;48.130;11.356;2022-12-24T17:11:55;14.70;;;1.80;;
54745;SDS011;40640;48.130;11.356;2022-12-24T17:15:59;4.28;;;2.28;;
54745;SDS011;40640;48.130;11.356;2022-12-24T17:20:04;2.40;;;1.63;;
54745;SDS011;40640;48.130;11.356;2022-12-24T17:24:08;7.10;;;2.97;;
54745;SDS011;40640;48.130;11.356;2022-12-24T17:28:12;7.75;;;3.03;;
54745;SDS011;40640;48.130;11.356;2022-12-24T17:32:15;3.65;;;1.90;;
54745;SDS011;40640;48.130;11.356;2022-12-24T17:36:19;3.47;;;1.65;;
54745;SDS011;40640;48.130;11.356;2022-12-24T17:40:22;6.75;;;2.42;;
54745;SDS011;40640;48.130;11.356;2022-12-24T17:44:25;7.05;;;3.03;;
54745;SDS011;40640;48.130;11.356;2022-12-24T17:48:28;5.90;;;2.80;;
54745;SDS011;40640;48.130;11.356;2022-12-24T17:52:32;4.00;;;1.98;;
54745;SDS011;40640;48.130;11.356;2022-12-24T17:56:35;3.50;;;2.58;;
54745;SDS011;40640;48.130;11.356;2022-12-24T18:00:38;7.05;;;3.88;;
54745;SDS011;40640;48.130;11.356;2022-12-24T18:04:41;5.22;;;2.95;;
54745;SDS011;40640;48.130;11.356;2022-12-24T18:08:46;2.60;;;1.58;;
54745;SDS011;40640;48.130;11.356;2022-12-24T18:12:48;2.40;;;1.58;;
54745;SDS011;40640;48.130;11.356;2022-12-24T18:16:51;2.08;;;1.63;;
54745;SDS011;40640;48.130;11.356;2022-12-24T18:20:54;4.20;;;1.83;;
54745;SDS011;40640;48.130;11.356;2022-12-24T18:24:58;3.30;;;1.98;;
54745;SDS011;40640;48.130;11.356;2022-12-24T18:29:01;2.00;;;1.60;;
54745;SDS011;40640;48.130;11.356;2022-12-24T18:33:06;3.03;;;1.58;;
54745;SDS011;40640;48.130;11.356;2022-12-24T18:37:08;2.38;;;1.50;;
54745;SDS011;40640;48.130;11.356;2022-12-24T18:41:14;6.30;;;3.70;;
54745;SDS011;40640;48.130;11.356;2022-12-24T18:45:19;6.03;;;3.55;;
54745;SDS011;40640;48.130;11.356;2022-12-24T18:49:21;3.45;;;2.38;;
54745;SDS011;40640;48.130;11.356;2022-12-24T18:53:24;3.90;;;2.70;;
54745;SDS011;40640;48.130;11.356;2022-12-24T18:57:28;5.03;;;3.05;;
54745;SDS011;40640;48.130;11.356;2022-12-24T19:01:32;7.78;;;3.20;;
54745;SDS011;40640;48.130;11.356;2022-12-24T19:05:36;7.18;;;2.80;;
54745;SDS011;40640;48.130;11.356;2022-12-24T19:09:39;5.47;;;2.60;;
54745;SDS011;40640;48.130;11.356;2022-12-24T19:13:45;12.73;;;5.45;;
54745;SDS011;40640;48.130;11.356;2022-12-24T19:17:52;5.40;;;2.92;;
54745;SDS011;40640;48.130;11.356;2022-12-24T19:21:55;4.78;;;3.15;;
54745;SDS011;40640;48.130;11.356;2022-12-24T19:25:58;4.53;;;2.45;;
54745;SDS011;40640;48.130;11.356;2022-12-24T19:30:02;9.00;;;3.42;;
54745;SDS011;40640;48.130;11.356;2022-12-24T19:34:06;5.65;;;3.80;;
54745;SDS011;40640;48.130;11.356;2022-12-24T19:38:08;5.78;;;3.35;;
54745;SDS011;40640;48.130;11.356;2022-12-24T19:42:11;5.57;;;3.40;;
54745;SDS011;40640;48.130;11.356;2022-12-24T19:46:16;7.35;;;3.92;;
54745;SDS011;40640;48.130;11.356;2022-12-24T19:50:21;8.68;;;5.47;;
54745;SDS011;40640;48.130;11.356;2022-12-24T19:54:24;11.10;;;3.70;;
54745;SDS011;40640;48.130;11.356;2022-12-24T19:58:27;6.30;;;3.60;;
54745;SDS011;40640;48.130;11.356;2022-12-24T20:02:34;5.45;;;3.50;;
54745;SDS011;40640;48.130;11.356;2022-12-24T20:06:37;4.90;;;3.50;;
54745;SDS011;40640;48.130;11.356;2022-12-24T20:10:40;4.70;;;2.50;;
54745;SDS011;40640;48.130;11.356;2022-12-24T20:14:44;3.30;;;2.28;;
54745;SDS011;40640;48.130;11.356;2022-12-24T20:18:50;2.67;;;1.92;;
54745;SDS011;40640;48.130;11.356;2022-12-24T20:22:54;2.08;;;1.52;;
54745;SDS011;40640;48.130;11.356;2022-12-24T20:26:56;2.75;;;1.70;;
54745;SDS011;40640;48.130;11.356;2022-12-24T20:30:59;2.10;;;1.60;;
54745;SDS011;40640;48.130;11.356;2022-12-24T20:35:04;1.75;;;1.20;;
54745;SDS011;40640;48.130;11.356;2022-12-24T20:39:07;3.17;;;1.63;;
54745;SDS011;40640;48.130;11.356;2022-12-24T20:43:10;3.47;;;1.70;;
54745;SDS011;40640;48.130;11.356;2022-12-24T20:47:14;4.82;;;1.92;;
54745;SDS011;40640;48.130;11.356;2022-12-24T20:51:19;7.82;;;2.60;;
54745;SDS011;40640;48.130;11.356;2022-12-24T20:55:25;6.15;;;4.07;;
54745;SDS011;40640;48.130;11.356;2022-12-24T20:59:28;4.47;;;3.38;;
54745;SDS011;40640;48.130;11.356;2022-12-24T21:03:31;3.30;;;2.47;;
54745;SDS011;40640;48.130;11.356;2022-12-24T21:07:35;2.92;;;2.20;;
54745;SDS011;40640;48.130;11.356;2022-12-24T21:11:39;3.45;;;2.38;;
54745;SDS011;40640;48.130;11.356;2022-12-24T21:15:59;2.30;;;1.77;;
54745;SDS011;40640;48.130;11.356;2022-12-24T21:20:02;3.10;;;2.35;;
54745;SDS011;40640;48.130;11.356;2022-12-24T21:24:07;5.13;;;2.75;;
54745;SDS011;40640;48.130;11.356;2022-12-24T21:28:10;4.47;;;2.70;;
54745;SDS011;40640;48.130;11.356;2022-12-24T21:32:13;4.40;;;2.53;;
54745;SDS011;40640;48.130;11.356;2022-12-24T21:36:16;4.47;;;2.55;;
54745;SDS011;40640;48.130;11.356;2022-12-24T21:40:20;4.93;;;2.63;;
54745;SDS011;40640;48.130;11.356;2022-12-24T21:44:23;5.53;;;3.67;;
54745;SDS011;40640;48.130;11.356;2022-12-24T21:48:25;5.43;;;3.35;;
54745;SDS011;40640;48.130;11.356;2022-12-24T21:52:46;3.85;;;2.75;;
54745;SDS011;40640;48.130;11.356;2022-12-24T21:56:51;3.72;;;2.17;;
54745;SDS011;40640;48.130;11.356;2022-12-24T22:01:12;8.40;;;3.45;;
54745;SDS011;40640;48.130;11.356;2022-12-24T22:05:15;6.15;;;3.45;;
54745;SDS011;40640;48.130;11.356;2022-12-24T22:09:18;7.28;;;4.32;;
54745;SDS011;40640;48.130;11.356;2022-12-24T22:13:40;7.55;;;4.20;;
54745;SDS011;40640;48.130;11.356;2022-12-24T22:17:43;6.47;;;4.72;;
54745;SDS011;40640;48.130;11.356;2022-12-24T22:21:45;8.48;;;5.30;;
54745;SDS011;40640;48.130;11.356;2022-12-24T22:25:48;9.48;;;5.88;;
54745;SDS011;40640;48.130;11.356;2022-12-24T22:29:52;14.00;;;6.45;;
54745;SDS011;40640;48.130;11.356;2022-12-24T22:33:55;14.80;;;7.20;;
54745;SDS011;40640;48.130;11.356;2022-12-24T22:37:58;12.70;;;6.95;;
54745;SDS011;40640;48.130;11.356;2022-12-24T22:42:01;12.88;;;7.03;;
54745;SDS011;40640;48.130;11.356;2022-12-24T22:46:05;15.45;;;8.40;;
54745;SDS011;40640;48.130;11.356;2022-12-24T22:50:09;12.13;;;6.72;;
54745;SDS011;40640;48.130;11.356;2022-12-24T22:54:13;13.73;;;7.05;;
54745;SDS011;40640;48.130;11.356;2022-12-24T22:58:16;9.85;;;6.43;;
54745;SDS011;40640;48.130;11.356;2022-12-24T23:02:20;9.95;;;5.93;;
54745;SDS011;40640;48.130;11.356;2022-12-24T23:06:29;11.98;;;5.82;;
54745;SDS011;40640;48.130;11.356;2022-12-24T23:10:32;11.13;;;5.03;;
54745;SDS011;40640;48.130;11.356;2022-12-24T23:14:35;10.55;;;5.70;;
54745;SDS011;40640;48.130;11.356;2022-12-24T23:18:57;7.60;;;4.22;;
54745;SDS011;40640;48.130;11.356;2022-12-24T23:23:01;4.85;;;3.70;;
54745;SDS011;40640;48.130;11.356;2022-12-24T23:27:04;6.75;;;3.78;;
54745;SDS011;40640;48.130;11.356;2022-12-24T23:31:07;4.72;;;2.97;;
54745;SDS011;40640;48.130;11.356;2022-12-24T23:35:12;5.18;;;3.05;;
54745;SDS011;40640;48.130;11.356;2022-12-24T23:39:15;5.00;;;3.17;;
54745;SDS011;40640;48.130;11.356;2022-12-24T23:43:18;7.80;;;2.95;;
54745;SDS011;40640;48.130;11.356;2022-12-24T23:47:20;4.90;;;2.75;;
54745;SDS011;40640;48.130;11.356;2022-12-24T23:51:25;4.40;;;2.67;;
54745;SDS011;40640;48.130;11.356;2022-12-24T23:55:29;5.07;;;2.83;;
54745;SDS011;40640;48.130;11.356;2022-12-24T23:59:31;5.40;;;2.83;;
